sensor_id;sensor_type;location;lat;lon;timestamp;pressure;altitude;pressure_sealevel;temperature;humidity
11712;BME280;5912;51.034;6.984;2022-08-21T00:01:11;101074.25;;;17.79;100.00
11712;BME280;5912;51.034;6.984;2022-08-21T00:03:37;101067.88;;;17.80;100.00
11712;BME280;5912;51.034;6.984;2022-08-21T00:06:03;101064.44;;;17.80;100.00
11712;BME280;5912;51.034;6.984;2022-08-21T00:08:28;101069.13;;;17.89;100.00
11712;BME280;5912;51.034;6.984;2022-08-21T00:10:54;101059.41;;;17.83;100.00
11712;BME280;5912;51.034;6.984;2022-08-21T00:13:20;101054.56;;;17.80;100.00
11712;BME280;5912;51.034;6.984;2022-08-21T00:15:46;101036.09;;;17.73;100.00
11712;BME280;5912;51.034;6.984;2022-08-21T00:18:12;101056.69;;;17.95;100.00
11712;BME280;5912;51.034;6.984;2022-08-21T00:20:38;101050.09;;;17.97;100.00
11712;BME280;5912;51.034;6.984;2022-08-21T00:23:04;101040.59;;;17.85;100.00
11712;BME280;5912;51.034;6.984;2022-08-21T00:25:30;101053.25;;;17.94;100.00
11712;BME280;5912;51.034;6.984;2022-08-21T00:27:56;101048.94;;;17.93;100.00
11712;BME280;5912;51.034;6.984;2022-08-21T00:30:24;101047.09;;;17.94;100.00
11712;BME280;5912;51.034;6.984;2022-08-21T00:32:50;101048.94;;;17.93;100.00
11712;BME280;5912;51.034;6.984;2022-08-21T00:35:24;101047.34;;;17.92;100.00
11712;BME280;5912;51.034;6.984;2022-08-21T00:37:50;101034.84;;;17.93;100.00
11712;BME280;5912;51.034;6.984;2022-08-21T00:40:18;101028.50;;;17.94;100.00
11712;BME280;5912;51.034;6.984;2022-08-21T00:42:44;101033.31;;;17.97;100.00
11712;BME280;5912;51.034;6.984;2022-08-21T00:45:11;101032.91;;;17.88;100.00
11712;BME280;5912;51.034;6.984;2022-08-21T00:47:37;101034.16;;;17.69;100.00
11712;BME280;5912;51.034;6.984;2022-08-21T00:50:04;101033.63;;;17.67;100.00
11712;BME280;5912;51.034;6.984;2022-08-21T00:52:32;101041.84;;;17.65;100.00
11712;BME280;5912;51.034;6.984;2022-08-21T00:54:59;101044.72;;;17.64;100.00
11712;BME280;5912;51.034;6.984;2022-08-21T00:57:30;101043.84;;;17.58;100.00
11712;BME280;5912;51.034;6.984;2022-08-21T01:00:00;101026.66;;;17.49;100.00
11712;BME280;5912;51.034;6.984;2022-08-21T01:02:26;101037.69;;;17.58;100.00
11712;BME280;5912;51.034;6.984;2022-08-21T01:04:52;101042.78;;;17.59;100.00
11712;BME280;5912;51.034;6.984;2022-08-21T01:07:18;101041.50;;;17.62;100.00
11712;BME280;5912;51.034;6.984;2022-08-21T01:09:46;101042.31;;;17.62;100.00
11712;BME280;5912;51.034;6.984;2022-08-21T01:12:12;101039.41;;;17.64;100.00
11712;BME280;5912;51.034;6.984;2022-08-21T01:14:38;101043.94;;;17.63;100.00
11712;BME280;5912;51.034;6.984;2022-08-21T01:17:05;101031.16;;;17.49;100.00
11712;BME280;5912;51.034;6.984;2022-08-21T01:19:32;101058.50;;;17.61;100.00
11712;BME280;5912;51.034;6.984;2022-08-21T01:21:57;101055.03;;;17.60;100.00
11712;BME280;5912;51.034;6.984;2022-08-21T01:24:24;101053.06;;;17.56;100.00
11712;BME280;5912;51.034;6.984;2022-08-21T01:26:50;101053.56;;;17.53;100.00
11712;BME280;5912;51.034;6.984;2022-08-21T01:31:41;101047.34;;;17.47;100.00
11712;BME280;5912;51.034;6.984;2022-08-21T01:34:07;101049.53;;;17.50;100.00
11712;BME280;5912;51.034;6.984;2022-08-21T01:36:33;101039.63;;;17.46;100.00
11712;BME280;5912;51.034;6.984;2022-08-21T01:39:00;101045.81;;;17.51;100.00
11712;BME280;5912;51.034;6.984;2022-08-21T01:41:26;101050.34;;;17.51;100.00
11712;BME280;5912;51.034;6.984;2022-08-21T01:43:51;101037.53;;;17.48;100.00
11712;BME280;5912;51.034;6.984;2022-08-21T01:46:17;101032.66;;;17.45;100.00
11712;BME280;5912;51.034;6.984;2022-08-21T01:48:42;101039.00;;;17.44;100.00
11712;BME280;5912;51.034;6.984;2022-08-21T01:51:08;101037.06;;;17.39;100.00
11712;BME280;5912;51.034;6.984;2022-08-21T01:53:35;101050.38;;;17.39;100.00
11712;BME280;5912;51.034;6.984;2022-08-21T01:56:04;101042.88;;;17.36;100.00
11712;BME280;5912;51.034;6.984;2022-08-21T01:58:30;101044.38;;;17.32;100.00
11712;BME280;5912;51.034;6.984;2022-08-21T02:00:55;101041.41;;;17.29;100.00
11712;BME280;5912;51.034;6.984;2022-08-21T02:03:20;101043.97;;;17.24;100.00
11712;BME280;5912;51.034;6.984;2022-08-21T02:05:46;101033.22;;;17.19;100.00
11712;BME280;5912;51.034;6.984;2022-08-21T02:08:11;101035.88;;;17.19;100.00
11712;BME280;5912;51.034;6.984;2022-08-21T02:10:36;101034.72;;;17.15;100.00
11712;BME280;5912;51.034;6.984;2022-08-21T02:13:02;101033.38;;;17.12;100.00
11712;BME280;5912;51.034;6.984;2022-08-21T02:15:29;101026.88;;;17.08;100.00
11712;BME280;5912;51.034;6.984;2022-08-21T02:17:56;101029.56;;;17.08;100.00
11712;BME280;5912;51.034;6.984;2022-08-21T02:22:49;101030.97;;;16.99;100.00
11712;BME280;5912;51.034;6.984;2022-08-21T02:25:16;101041.38;;;17.01;100.00
11712;BME280;5912;51.034;6.984;2022-08-21T02:27:44;101037.09;;;17.00;100.00
11712;BME280;5912;51.034;6.984;2022-08-21T02:30:33;101031.78;;;17.00;100.00
11712;BME280;5912;51.034;6.984;2022-08-21T02:32:58;101039.66;;;16.95;100.00
11712;BME280;5912;51.034;6.984;2022-08-21T02:35:25;101035.38;;;16.94;100.00
11712;BME280;5912;51.034;6.984;2022-08-21T02:37:53;101031.09;;;16.93;100.00
11712;BME280;5912;51.034;6.984;2022-08-21T02:40:23;101028.69;;;16.91;100.00
11712;BME280;5912;51.034;6.984;2022-08-21T02:42:49;101032.16;;;16.92;100.00
11712;BME280;5912;51.034;6.984;2022-08-21T02:45:15;101036.06;;;16.89;100.00
11712;BME280;5912;51.034;6.984;2022-08-21T02:47:56;101024.09;;;16.87;100.00
11712;BME280;5912;51.034;6.984;2022-08-21T02:50:35;101024.09;;;16.87;100.00
11712;BME280;5912;51.034;6.984;2022-08-21T02:53:02;101026.16;;;16.85;100.00
11712;BME280;5912;51.034;6.984;2022-08-21T02:55:29;101018.44;;;16.83;100.00
11712;BME280;5912;51.034;6.984;2022-08-21T02:57:57;101023.50;;;16.85;100.00
11712;BME280;5912;51.034;6.984;2022-08-21T03:00:25;101026.16;;;16.85;100.00
11712;BME280;5912;51.034;6.984;2022-08-21T03:02:51;101021.91;;;16.84;100.00
11712;BME280;5912;51.034;6.984;2022-08-21T03:05:17;101022.38;;;16.81;100.00
11712;BME280;5912;51.034;6.984;2022-08-21T03:07:44;101025.59;;;16.83;100.00
11712;BME280;5912;51.034;6.984;2022-08-21T03:10:11;101028.25;;;16.83;100.00
11712;BME280;5912;51.034;6.984;2022-08-21T03:12:37;101027.22;;;16.84;100.00
11712;BME280;5912;51.034;6.984;2022-08-21T03:15:05;101021.91;;;16.84;100.00
11712;BME280;5912;51.034;6.984;2022-08-21T03:17:31;101022.03;;;16.77;100.00
11712;BME280;5912;51.034;6.984;2022-08-21T03:19:57;101026.63;;;16.82;100.00
11712;BME280;5912;51.034;6.984;2022-08-21T03:22:22;101031.34;;;16.80;100.00
11712;BME280;5912;51.034;6.984;2022-08-21T03:24:47;101021.69;;;16.74;100.00
11712;BME280;5912;51.034;6.984;2022-08-21T03:27:13;101027.47;;;16.71;100.00
11712;BME280;5912;51.034;6.984;2022-08-21T03:29:39;101018.91;;;16.69;100.00
11712;BME280;5912;51.034;6.984;2022-08-21T03:32:04;101016.19;;;16.64;100.00
11712;BME280;5912;51.034;6.984;2022-08-21T03:34:30;101016.63;;;16.61;100.00
11712;BME280;5912;51.034;6.984;2022-08-21T03:36:55;100992.84;;;16.43;100.00
11712;BME280;5912;51.034;6.984;2022-08-21T03:39:21;101025.03;;;16.58;100.00
11712;BME280;5912;51.034;6.984;2022-08-21T03:41:46;101022.63;;;16.56;100.00
11712;BME280;5912;51.034;6.984;2022-08-21T03:44:12;101020.19;;;16.55;100.00
11712;BME280;5912;51.034;6.984;2022-08-21T03:46:38;101026.91;;;16.57;100.00
11712;BME280;5912;51.034;6.984;2022-08-21T03:49:05;101021.59;;;16.57;100.00
11712;BME280;5912;51.034;6.984;2022-08-21T03:51:31;101032.69;;;16.54;100.00
11712;BME280;5912;51.034;6.984;2022-08-21T03:53:58;101024.16;;;16.52;100.00
11712;BME280;5912;51.034;6.984;2022-08-21T03:56:24;101026.22;;;16.50;100.00
11712;BME280;5912;51.034;6.984;2022-08-21T03:58:50;101013.50;;;16.41;100.00
11712;BME280;5912;51.034;6.984;2022-08-21T04:01:15;101029.09;;;16.49;100.00
11712;BME280;5912;51.034;6.984;2022-08-21T04:03:41;101028.50;;;16.47;100.00
11712;BME280;5912;51.034;6.984;2022-08-21T04:06:06;101022.66;;;16.45;100.00
11712;BME280;5912;51.034;6.984;2022-08-21T04:08:32;101031.59;;;16.44;100.00
11712;BME280;5912;51.034;6.984;2022-08-21T04:10:58;101017.09;;;16.35;100.00
11712;BME280;5912;51.034;6.984;2022-08-21T04:13:24;101028.84;;;16.39;100.00
11712;BME280;5912;51.034;6.984;2022-08-21T04:15:49;101032.53;;;16.38;100.00
11712;BME280;5912;51.034;6.984;2022-08-21T04:18:15;101039.69;;;16.37;100.00
11712;BME280;5912;51.034;6.984;2022-08-21T04:20:42;101033.00;;;16.35;100.00
11712;BME280;5912;51.034;6.984;2022-08-21T04:23:08;100973.13;;;15.92;100.00
11712;BME280;5912;51.034;6.984;2022-08-21T04:25:34;101036.69;;;16.33;100.00
11712;BME280;5912;51.034;6.984;2022-08-21T04:27:59;101034.66;;;16.47;100.00
11712;BME280;5912;51.034;6.984;2022-08-21T04:30:24;101042.03;;;16.57;100.00
11712;BME280;5912;51.034;6.984;2022-08-21T04:32:50;101040.50;;;16.38;100.00
11712;BME280;5912;51.034;6.984;2022-08-21T04:35:19;101031.84;;;16.30;100.00
11712;BME280;5912;51.034;6.984;2022-08-21T04:37:45;101035.78;;;16.28;100.00
11712;BME280;5912;51.034;6.984;2022-08-21T04:40:13;101049.16;;;16.33;100.00
11712;BME280;5912;51.034;6.984;2022-08-21T04:42:48;101045.09;;;16.30;100.00
11712;BME280;5912;51.034;6.984;2022-08-21T04:45:27;101047.75;;;16.30;100.00
11712;BME280;5912;51.034;6.984;2022-08-21T04:47:55;101045.09;;;16.30;100.00
11712;BME280;5912;51.034;6.984;2022-08-21T04:50:24;101057.69;;;16.35;100.00
11712;BME280;5912;51.034;6.984;2022-08-21T04:52:51;101057.13;;;16.33;100.00
11712;BME280;5912;51.034;6.984;2022-08-21T04:55:17;101067.25;;;16.36;100.00
11712;BME280;5912;51.034;6.984;2022-08-21T04:57:43;101057.47;;;16.37;100.00
11712;BME280;5912;51.034;6.984;2022-08-21T05:00:10;101063.09;;;16.40;100.00
11712;BME280;5912;51.034;6.984;2022-08-21T05:02:38;101068.41;;;16.40;100.00
11712;BME280;5912;51.034;6.984;2022-08-21T05:05:04;101053.66;;;16.44;100.00
11712;BME280;5912;51.034;6.984;2022-08-21T05:07:31;101071.78;;;16.47;100.00
11712;BME280;5912;51.034;6.984;2022-08-21T05:09:59;101069.03;;;16.54;100.00
11712;BME280;5912;51.034;6.984;2022-08-21T05:12:25;101066.97;;;16.56;100.00
11712;BME280;5912;51.034;6.984;2022-08-21T05:14:50;101073.75;;;16.63;100.00
11712;BME280;5912;51.034;6.984;2022-08-21T05:17:16;101074.44;;;16.70;100.00
11712;BME280;5912;51.034;6.984;2022-08-21T05:19:41;101070.94;;;16.93;100.00
11712;BME280;5912;51.034;6.984;2022-08-21T05:22:06;101045.56;;;16.85;100.00
11712;BME280;5912;51.034;6.984;2022-08-21T05:24:32;101072.47;;;16.89;100.00
11712;BME280;5912;51.034;6.984;2022-08-21T05:26:58;101069.81;;;16.89;100.00
11712;BME280;5912;51.034;6.984;2022-08-21T05:29:23;101074.88;;;16.90;100.00
11712;BME280;5912;51.034;6.984;2022-08-21T05:31:49;101048.00;;;16.75;100.00
11712;BME280;5912;51.034;6.984;2022-08-21T05:34:18;101077.66;;;16.95;100.00
11712;BME280;5912;51.034;6.984;2022-08-21T05:36:44;101072.88;;;16.97;100.00
11712;BME280;5912;51.034;6.984;2022-08-21T05:39:09;101067.56;;;16.97;100.00
11712;BME280;5912;51.034;6.984;2022-08-21T05:41:35;101074.41;;;17.05;100.00
11712;BME280;5912;51.034;6.984;2022-08-21T05:44:00;101078.19;;;17.09;100.00
11712;BME280;5912;51.034;6.984;2022-08-21T05:46:25;101078.28;;;17.14;100.00
11712;BME280;5912;51.034;6.984;2022-08-21T05:48:51;101075.75;;;17.19;100.00
11712;BME280;5912;51.034;6.984;2022-08-21T05:51:16;101082.41;;;17.21;100.00
11712;BME280;5912;51.034;6.984;2022-08-21T05:53:43;101064.06;;;17.20;100.00
11712;BME280;5912;51.034;6.984;2022-08-21T05:56:10;101071.66;;;17.28;100.00
11712;BME280;5912;51.034;6.984;2022-08-21T05:58:35;101082.25;;;17.39;100.00
11712;BME280;5912;51.034;6.984;2022-08-21T06:01:02;101079.50;;;17.46;100.00
11712;BME280;5912;51.034;6.984;2022-08-21T06:03:35;101086.28;;;17.53;100.00
11712;BME280;5912;51.034;6.984;2022-08-21T06:06:01;101077.47;;;17.53;100.00
11712;BME280;5912;51.034;6.984;2022-08-21T06:08:27;101087.25;;;17.64;100.00
11712;BME280;5912;51.034;6.984;2022-08-21T06:10:54;101083.44;;;17.72;100.00
11712;BME280;5912;51.034;6.984;2022-08-21T06:13:21;101077.97;;;17.78;100.00
11712;BME280;5912;51.034;6.984;2022-08-21T06:15:47;101080.25;;;17.86;100.00
11712;BME280;5912;51.034;6.984;2022-08-21T06:18:13;101084.59;;;17.92;99.76
11712;BME280;5912;51.034;6.984;2022-08-21T06:20:39;101082.56;;;17.99;99.88
11712;BME280;5912;51.034;6.984;2022-08-21T06:23:04;101082.75;;;18.09;99.60
11712;BME280;5912;51.034;6.984;2022-08-21T06:25:30;101067.44;;;18.16;98.65
11712;BME280;5912;51.034;6.984;2022-08-21T06:28:05;101077.72;;;18.29;98.35
11712;BME280;5912;51.034;6.984;2022-08-21T06:30:31;101069.03;;;18.34;97.55
11712;BME280;5912;51.034;6.984;2022-08-21T06:32:57;101074.84;;;18.47;96.85
11712;BME280;5912;51.034;6.984;2022-08-21T06:35:22;101072.34;;;18.57;96.68
11712;BME280;5912;51.034;6.984;2022-08-21T06:37:49;101069.34;;;18.70;95.44
11712;BME280;5912;51.034;6.984;2022-08-21T06:40:15;101063.09;;;18.81;95.15
11712;BME280;5912;51.034;6.984;2022-08-21T06:42:40;101068.84;;;18.95;94.60
11712;BME280;5912;51.034;6.984;2022-08-21T06:45:05;101082.72;;;19.35;93.65
11712;BME280;5912;51.034;6.984;2022-08-21T06:47:31;101082.25;;;19.96;90.84
11712;BME280;5912;51.034;6.984;2022-08-21T06:49:56;101076.13;;;20.64;87.61
11712;BME280;5912;51.034;6.984;2022-08-21T06:52:21;101081.78;;;21.29;84.00
11712;BME280;5912;51.034;6.984;2022-08-21T06:54:47;101087.31;;;21.89;81.11
11712;BME280;5912;51.034;6.984;2022-08-21T06:57:12;101091.59;;;22.46;76.33
11712;BME280;5912;51.034;6.984;2022-08-21T06:59:37;101085.91;;;22.77;73.96
11712;BME280;5912;51.034;6.984;2022-08-21T07:02:03;101075.28;;;23.26;72.79
11712;BME280;5912;51.034;6.984;2022-08-21T07:04:28;101087.84;;;23.84;69.35
11712;BME280;5912;51.034;6.984;2022-08-21T07:06:54;101086.44;;;24.25;66.51
11712;BME280;5912;51.034;6.984;2022-08-21T07:09:19;101076.94;;;24.61;64.86
11712;BME280;5912;51.034;6.984;2022-08-21T07:11:47;101080.94;;;25.16;62.78
11712;BME280;5912;51.034;6.984;2022-08-21T07:14:15;101095.09;;;25.64;60.55
11712;BME280;5912;51.034;6.984;2022-08-21T07:16:40;101090.50;;;26.01;57.38
11712;BME280;5912;51.034;6.984;2022-08-21T07:19:06;101090.28;;;26.30;54.85
11712;BME280;5912;51.034;6.984;2022-08-21T07:21:31;101097.53;;;26.62;53.59
11712;BME280;5912;51.034;6.984;2022-08-21T07:23:57;101104.28;;;26.91;52.67
11712;BME280;5912;51.034;6.984;2022-08-21T07:26:23;101073.97;;;27.08;50.92
11712;BME280;5912;51.034;6.984;2022-08-21T07:28:49;101091.47;;;27.37;48.41
11712;BME280;5912;51.034;6.984;2022-08-21T07:31:16;101091.09;;;27.66;47.86
11712;BME280;5912;51.034;6.984;2022-08-21T07:33:42;101096.84;;;28.09;47.72
11712;BME280;5912;51.034;6.984;2022-08-21T07:36:08;101095.81;;;28.49;46.67
11712;BME280;5912;51.034;6.984;2022-08-21T07:38:33;101089.75;;;28.82;45.16
11712;BME280;5912;51.034;6.984;2022-08-21T07:41:00;101097.69;;;29.18;43.49
11712;BME280;5912;51.034;6.984;2022-08-21T07:43:27;101089.59;;;29.27;43.41
11712;BME280;5912;51.034;6.984;2022-08-21T07:45:53;101082.28;;;29.61;43.12
11712;BME280;5912;51.034;6.984;2022-08-21T07:48:20;101081.63;;;30.07;42.83
11712;BME280;5912;51.034;6.984;2022-08-21T07:50:46;101090.06;;;30.40;41.15
11712;BME280;5912;51.034;6.984;2022-08-21T07:53:11;101083.88;;;30.68;40.47
11712;BME280;5912;51.034;6.984;2022-08-21T07:55:37;101089.28;;;30.77;39.55
11712;BME280;5912;51.034;6.984;2022-08-21T07:58:03;101086.88;;;30.84;37.68
11712;BME280;5912;51.034;6.984;2022-08-21T08:00:28;101088.09;;;30.95;38.19
11712;BME280;5912;51.034;6.984;2022-08-21T08:02:55;101082.50;;;31.20;37.15
11712;BME280;5912;51.034;6.984;2022-08-21T08:05:23;101094.47;;;31.48;37.57
11712;BME280;5912;51.034;6.984;2022-08-21T08:07:49;101086.63;;;31.67;37.07
11712;BME280;5912;51.034;6.984;2022-08-21T08:10:16;101094.38;;;31.98;37.30
11712;BME280;5912;51.034;6.984;2022-08-21T08:12:42;101095.28;;;32.35;36.24
11712;BME280;5912;51.034;6.984;2022-08-21T08:15:11;101090.03;;;32.18;34.70
11712;BME280;5912;51.034;6.984;2022-08-21T08:17:37;101089.69;;;31.87;34.66
11712;BME280;5912;51.034;6.984;2022-08-21T08:20:05;101083.44;;;31.65;34.76
11712;BME280;5912;51.034;6.984;2022-08-21T08:22:31;101075.69;;;31.76;35.67
11712;BME280;5912;51.034;6.984;2022-08-21T08:24:56;101084.94;;;32.16;35.36
11712;BME280;5912;51.034;6.984;2022-08-21T08:27:22;101077.38;;;32.34;33.74
11712;BME280;5912;51.034;6.984;2022-08-21T08:29:49;101086.72;;;32.57;34.46
11712;BME280;5912;51.034;6.984;2022-08-21T08:32:15;101084.81;;;32.93;34.34
11712;BME280;5912;51.034;6.984;2022-08-21T08:34:40;101075.25;;;33.24;32.88
11712;BME280;5912;51.034;6.984;2022-08-21T08:37:07;101078.88;;;33.28;33.05
11712;BME280;5912;51.034;6.984;2022-08-21T08:39:33;101078.63;;;33.45;32.96
11712;BME280;5912;51.034;6.984;2022-08-21T08:42:45;101084.78;;;33.42;31.86
11712;BME280;5912;51.034;6.984;2022-08-21T08:44:56;101077.16;;;33.35;33.01
11712;BME280;5912;51.034;6.984;2022-08-21T08:47:23;101073.13;;;33.57;33.07
11712;BME280;5912;51.034;6.984;2022-08-21T08:52:35;101064.41;;;34.37;31.08
11712;BME280;5912;51.034;6.984;2022-08-21T08:55:08;101069.38;;;34.63;31.37
11712;BME280;5912;51.034;6.984;2022-08-21T08:57:36;101063.91;;;34.79;31.07
11712;BME280;5912;51.034;6.984;2022-08-21T09:00:11;101063.81;;;34.75;30.60
11712;BME280;5912;51.034;6.984;2022-08-21T09:02:44;101073.97;;;34.75;29.86
11712;BME280;5912;51.034;6.984;2022-08-21T09:05:19;101069.88;;;34.84;30.48
11712;BME280;5912;51.034;6.984;2022-08-21T09:10:46;101058.78;;;35.27;29.61
11712;BME280;5912;51.034;6.984;2022-08-21T09:13:33;101040.94;;;35.33;29.73
11712;BME280;5912;51.034;6.984;2022-08-21T09:16:12;101054.06;;;35.43;29.70
11712;BME280;5912;51.034;6.984;2022-08-21T09:27:11;101050.13;;;35.06;28.97
11712;BME280;5912;51.034;6.984;2022-08-21T09:29:43;101048.75;;;34.81;28.92
11712;BME280;5912;51.034;6.984;2022-08-21T09:32:15;101051.22;;;34.55;29.26
11712;BME280;5912;51.034;6.984;2022-08-21T09:35:04;101040.78;;;34.42;30.09
11712;BME280;5912;51.034;6.984;2022-08-21T09:37:33;101039.84;;;34.37;29.51
11712;BME280;5912;51.034;6.984;2022-08-21T09:40:00;101039.69;;;34.15;30.03
11712;BME280;5912;51.034;6.984;2022-08-21T09:42:28;101033.72;;;33.82;31.07
11712;BME280;5912;51.034;6.984;2022-08-21T09:47:31;101032.09;;;34.08;31.29
11712;BME280;5912;51.034;6.984;2022-08-21T09:50:25;101031.69;;;34.53;30.40
11712;BME280;5912;51.034;6.984;2022-08-21T09:52:55;101036.03;;;35.04;30.63
11712;BME280;5912;51.034;6.984;2022-08-21T09:55:39;101026.47;;;35.33;30.61
11712;BME280;5912;51.034;6.984;2022-08-21T09:58:33;101024.53;;;35.71;28.81
11712;BME280;5912;51.034;6.984;2022-08-21T10:01:02;101015.91;;;35.89;28.21
11712;BME280;5912;51.034;6.984;2022-08-21T10:03:29;101020.03;;;36.02;27.80
11712;BME280;5912;51.034;6.984;2022-08-21T10:06:03;101017.41;;;36.09;27.99
11712;BME280;5912;51.034;6.984;2022-08-21T10:08:32;101024.47;;;36.10;27.35
11712;BME280;5912;51.034;6.984;2022-08-21T10:11:12;101019.03;;;35.91;27.67
11712;BME280;5912;51.034;6.984;2022-08-21T10:13:56;101011.94;;;35.67;27.47
11712;BME280;5912;51.034;6.984;2022-08-21T10:25:02;101007.25;;;35.87;28.51
11712;BME280;5912;51.034;6.984;2022-08-21T10:30:06;101000.28;;;36.34;27.34
11712;BME280;5912;51.034;6.984;2022-08-21T10:35:30;101000.59;;;36.81;26.61
11712;BME280;5912;51.034;6.984;2022-08-21T10:38:08;100998.66;;;36.82;26.67
11712;BME280;5912;51.034;6.984;2022-08-21T10:40:54;101000.94;;;37.06;26.47
11712;BME280;5912;51.034;6.984;2022-08-21T10:43:38;101011.00;;;36.98;25.56
11712;BME280;5912;51.034;6.984;2022-08-21T10:46:19;100996.00;;;36.89;26.55
11712;BME280;5912;51.034;6.984;2022-08-21T10:48:54;100980.94;;;36.76;26.22
11712;BME280;5912;51.034;6.984;2022-08-21T10:51:36;100996.53;;;36.72;25.81
11712;BME280;5912;51.034;6.984;2022-08-21T10:56:39;100995.72;;;36.97;25.89
11712;BME280;5912;51.034;6.984;2022-08-21T10:59:18;100997.03;;;36.77;24.48
11712;BME280;5912;51.034;6.984;2022-08-21T11:04:25;100990.94;;;36.91;25.60
11712;BME280;5912;51.034;6.984;2022-08-21T11:07:00;100982.34;;;36.92;24.79
11712;BME280;5912;51.034;6.984;2022-08-21T11:09:27;100981.91;;;37.20;24.72
11712;BME280;5912;51.034;6.984;2022-08-21T11:12:06;100990.81;;;37.43;25.53
11712;BME280;5912;51.034;6.984;2022-08-21T11:15:05;100987.78;;;37.52;25.30
11712;BME280;5912;51.034;6.984;2022-08-21T11:21:01;100984.44;;;37.32;25.30
11712;BME280;5912;51.034;6.984;2022-08-21T11:23:35;100985.13;;;36.96;23.86
11712;BME280;5912;51.034;6.984;2022-08-21T11:26:07;100981.31;;;36.74;25.27
11712;BME280;5912;51.034;6.984;2022-08-21T11:28:39;100976.84;;;37.22;24.63
11712;BME280;5912;51.034;6.984;2022-08-21T11:31:20;100989.19;;;37.72;24.46
11712;BME280;5912;51.034;6.984;2022-08-21T11:39:26;100992.06;;;38.84;22.34
11712;BME280;5912;51.034;6.984;2022-08-21T11:42:03;100988.31;;;39.20;22.80
11712;BME280;5912;51.034;6.984;2022-08-21T11:44:50;100985.53;;;39.06;21.86
11712;BME280;5912;51.034;6.984;2022-08-21T11:47:30;100980.06;;;39.20;23.30
11712;BME280;5912;51.034;6.984;2022-08-21T11:50:04;100974.63;;;39.37;23.05
11712;BME280;5912;51.034;6.984;2022-08-21T11:55:19;100981.44;;;39.96;22.58
11712;BME280;5912;51.034;6.984;2022-08-21T12:00:36;100975.16;;;40.20;22.06
11712;BME280;5912;51.034;6.984;2022-08-21T12:03:14;100971.22;;;40.28;21.45
11712;BME280;5912;51.034;6.984;2022-08-21T12:05:44;100972.00;;;40.22;21.59
11712;BME280;5912;51.034;6.984;2022-08-21T12:11:22;100963.31;;;39.74;21.68
11712;BME280;5912;51.034;6.984;2022-08-21T12:13:57;100958.13;;;39.34;22.76
11712;BME280;5912;51.034;6.984;2022-08-21T12:16:35;100961.31;;;38.61;22.21
11712;BME280;5912;51.034;6.984;2022-08-21T12:19:10;100958.50;;;38.03;23.35
11712;BME280;5912;51.034;6.984;2022-08-21T12:21:58;100959.16;;;37.89;23.96
11712;BME280;5912;51.034;6.984;2022-08-21T12:25:02;100953.28;;;38.34;24.00
11712;BME280;5912;51.034;6.984;2022-08-21T12:27:44;100942.81;;;38.58;25.03
11712;BME280;5912;51.034;6.984;2022-08-21T12:30:32;100956.66;;;38.75;24.42
11712;BME280;5912;51.034;6.984;2022-08-21T12:33:02;100949.69;;;38.92;23.43
11712;BME280;5912;51.034;6.984;2022-08-21T12:35:33;100942.97;;;38.86;23.10
11712;BME280;5912;51.034;6.984;2022-08-21T12:38:09;100946.19;;;38.98;24.14
11712;BME280;5912;51.034;6.984;2022-08-21T12:43:19;100943.59;;;39.37;22.90
11712;BME280;5912;51.034;6.984;2022-08-21T12:45:49;100946.78;;;39.60;22.73
11712;BME280;5912;51.034;6.984;2022-08-21T12:51:24;100959.00;;;39.73;22.23
11712;BME280;5912;51.034;6.984;2022-08-21T12:53:58;100937.78;;;39.98;22.05
11712;BME280;5912;51.034;6.984;2022-08-21T12:56:30;100950.38;;;40.31;21.40
11712;BME280;5912;51.034;6.984;2022-08-21T12:59:07;100938.06;;;40.63;21.38
11712;BME280;5912;51.034;6.984;2022-08-21T13:01:38;100940.31;;;41.03;21.03
11712;BME280;5912;51.034;6.984;2022-08-21T13:04:08;100940.69;;;41.05;21.04
11712;BME280;5912;51.034;6.984;2022-08-21T13:06:41;100939.84;;;41.23;21.25
11712;BME280;5912;51.034;6.984;2022-08-21T13:09:11;100937.97;;;40.98;20.35
11712;BME280;5912;51.034;6.984;2022-08-21T13:11:39;100935.00;;;40.40;21.01
11712;BME280;5912;51.034;6.984;2022-08-21T13:14:13;100934.63;;;40.03;21.23
11712;BME280;5912;51.034;6.984;2022-08-21T13:16:40;100929.09;;;39.96;22.41
11712;BME280;5912;51.034;6.984;2022-08-21T13:19:07;100940.16;;;39.89;20.56
11712;BME280;5912;51.034;6.984;2022-08-21T13:21:41;100924.00;;;39.98;21.75
11712;BME280;5912;51.034;6.984;2022-08-21T13:24:21;100928.69;;;40.22;21.35
11712;BME280;5912;51.034;6.984;2022-08-21T13:26:49;100916.81;;;40.57;20.30
11712;BME280;5912;51.034;6.984;2022-08-21T13:29:17;100938.44;;;40.83;20.64
11712;BME280;5912;51.034;6.984;2022-08-21T13:31:49;100924.56;;;40.93;20.52
11712;BME280;5912;51.034;6.984;2022-08-21T13:34:17;100934.78;;;41.03;20.55
11712;BME280;5912;51.034;6.984;2022-08-21T13:36:43;100929.94;;;41.25;20.44
11712;BME280;5912;51.034;6.984;2022-08-21T13:39:15;100921.22;;;41.34;20.05
11712;BME280;5912;51.034;6.984;2022-08-21T13:41:44;100917.28;;;41.35;19.64
11712;BME280;5912;51.034;6.984;2022-08-21T13:44:23;100927.97;;;41.29;20.35
11712;BME280;5912;51.034;6.984;2022-08-21T13:46:52;100914.34;;;40.94;20.59
11712;BME280;5912;51.034;6.984;2022-08-21T13:49:30;100916.09;;;40.39;20.37
11712;BME280;5912;51.034;6.984;2022-08-21T13:51:56;100920.84;;;40.28;21.29
11712;BME280;5912;51.034;6.984;2022-08-21T13:54:25;100914.88;;;40.50;21.89
11712;BME280;5912;51.034;6.984;2022-08-21T13:56:52;100922.72;;;40.59;20.96
11712;BME280;5912;51.034;6.984;2022-08-21T13:59:25;100914.03;;;40.67;20.53
11712;BME280;5912;51.034;6.984;2022-08-21T14:01:55;100910.88;;;40.72;21.15
11712;BME280;5912;51.034;6.984;2022-08-21T14:04:36;100909.72;;;40.59;20.38
11712;BME280;5912;51.034;6.984;2022-08-21T14:07:14;100912.50;;;40.56;21.24
11712;BME280;5912;51.034;6.984;2022-08-21T14:09:41;100907.41;;;40.47;21.31